sensor_id;sensor_type;location;lat;lon;timestamp;P1;durP1;ratioP1;P2;durP2;ratioP2
8102;SDS011;4094;49.948;11.574;2023-04-25T00:01:16;9.80;;;9.10;;
8102;SDS011;4094;49.948;11.574;2023-04-25T00:03:46;9.83;;;9.23;;
8102;SDS011;4094;49.948;11.574;2023-04-25T00:06:16;9.87;;;9.27;;
8102;SDS011;4094;49.948;11.574;2023-04-25T00:08:46;9.87;;;9.20;;
8102;SDS011;4094;49.948;11.574;2023-04-25T00:11:16;9.93;;;9.33;;
8102;SDS011;4094;49.948;11.574;2023-04-25T00:13:45;9.77;;;9.07;;
8102;SDS011;4094;49.948;11.574;2023-04-25T00:16:14;9.43;;;8.83;;
8102;SDS011;4094;49.948;11.574;2023-04-25T00:18:45;9.27;;;8.67;;
8102;SDS011;4094;49.948;11.574;2023-04-25T00:21:18;9.30;;;8.70;;
8102;SDS011;4094;49.948;11.574;2023-04-25T00:23:47;9.33;;;8.73;;
8102;SDS011;4094;49.948;11.574;2023-04-25T00:26:16;9.70;;;9.07;;
8102;SDS011;4094;49.948;11.574;2023-04-25T00:28:46;9.43;;;8.73;;
8102;SDS011;4094;49.948;11.574;2023-04-25T00:31:15;9.50;;;9.00;;
8102;SDS011;4094;49.948;11.574;2023-04-25T00:33:45;9.33;;;8.63;;
8102;SDS011;4094;49.948;11.574;2023-04-25T00:36:15;9.30;;;8.70;;
8102;SDS011;4094;49.948;11.574;2023-04-25T00:38:45;10.13;;;9.30;;
8102;SDS011;4094;49.948;11.574;2023-04-25T00:41:14;9.60;;;8.90;;
8102;SDS011;4094;49.948;11.574;2023-04-25T00:43:44;10.10;;;9.30;;
8102;SDS011;4094;49.948;11.574;2023-04-25T00:46:14;9.80;;;9.00;;
8102;SDS011;4094;49.948;11.574;2023-04-25T00:48:44;9.13;;;8.53;;
8102;SDS011;4094;49.948;11.574;2023-04-25T00:51:15;9.60;;;9.00;;
8102;SDS011;4094;49.948;11.574;2023-04-25T00:53:48;9.40;;;8.80;;
8102;SDS011;4094;49.948;11.574;2023-04-25T00:56:18;9.77;;;9.17;;
8102;SDS011;4094;49.948;11.574;2023-04-25T00:58:48;9.67;;;9.07;;
8102;SDS011;4094;49.948;11.574;2023-04-25T01:01:18;9.10;;;8.60;;
8102;SDS011;4094;49.948;11.574;2023-04-25T01:03:49;9.20;;;8.70;;
8102;SDS011;4094;49.948;11.574;2023-04-25T01:06:20;9.30;;;8.60;;
8102;SDS011;4094;49.948;11.574;2023-04-25T01:08:51;9.00;;;8.50;;
8102;SDS011;4094;49.948;11.574;2023-04-25T01:11:21;9.30;;;8.60;;
8102;SDS011;4094;49.948;11.574;2023-04-25T01:13:50;9.10;;;8.50;;
8102;SDS011;4094;49.948;11.574;2023-04-25T01:16:19;8.47;;;7.97;;
8102;SDS011;4094;49.948;11.574;2023-04-25T01:18:52;9.20;;;8.60;;
8102;SDS011;4094;49.948;11.574;2023-04-25T01:21:23;9.13;;;8.60;;
8102;SDS011;4094;49.948;11.574;2023-04-25T01:23:55;9.50;;;8.90;;
8102;SDS011;4094;49.948;11.574;2023-04-25T01:26:25;9.03;;;8.53;;
8102;SDS011;4094;49.948;11.574;2023-04-25T01:28:54;9.17;;;8.47;;
8102;SDS011;4094;49.948;11.574;2023-04-25T01:31:26;9.17;;;8.63;;
8102;SDS011;4094;49.948;11.574;2023-04-25T01:33:57;8.97;;;8.47;;
8102;SDS011;4094;49.948;11.574;2023-04-25T01:36:30;8.90;;;8.30;;
8102;SDS011;4094;49.948;11.574;2023-04-25T01:39:00;9.10;;;8.50;;
8102;SDS011;4094;49.948;11.574;2023-04-25T01:41:30;9.50;;;8.90;;
8102;SDS011;4094;49.948;11.574;2023-04-25T01:43:59;9.27;;;8.67;;
8102;SDS011;4094;49.948;11.574;2023-04-25T01:46:29;8.63;;;8.13;;
8102;SDS011;4094;49.948;11.574;2023-04-25T01:48:59;8.70;;;8.10;;
8102;SDS011;4094;49.948;11.574;2023-04-25T01:51:30;9.63;;;9.03;;
8102;SDS011;4094;49.948;11.574;2023-04-25T01:54:00;9.60;;;8.60;;
8102;SDS011;4094;49.948;11.574;2023-04-25T01:56:30;9.00;;;8.40;;
8102;SDS011;4094;49.948;11.574;2023-04-25T01:59:01;9.37;;;8.77;;
8102;SDS011;4094;49.948;11.574;2023-04-25T02:01:49;8.90;;;8.40;;
8102;SDS011;4094;49.948;11.574;2023-04-25T02:04:27;9.57;;;8.97;;
8102;SDS011;4094;49.948;11.574;2023-04-25T02:06:58;9.53;;;8.83;;
8102;SDS011;4094;49.948;11.574;2023-04-25T02:09:36;8.73;;;8.20;;
8102;SDS011;4094;49.948;11.574;2023-04-25T02:12:07;9.03;;;8.53;;
8102;SDS011;4094;49.948;11.574;2023-04-25T02:15:04;9.50;;;8.80;;
8102;SDS011;4094;49.948;11.574;2023-04-25T02:17:41;9.50;;;8.90;;
8102;SDS011;4094;49.948;11.574;2023-04-25T02:20:12;9.27;;;8.67;;
8102;SDS011;4094;49.948;11.574;2023-04-25T02:22:44;9.80;;;9.10;;
8102;SDS011;4094;49.948;11.574;2023-04-25T02:25:13;9.40;;;8.80;;
8102;SDS011;4094;49.948;11.574;2023-04-25T02:27:43;9.50;;;8.90;;
8102;SDS011;4094;49.948;11.574;2023-04-25T02:30:13;9.17;;;8.57;;
8102;SDS011;4094;49.948;11.574;2023-04-25T02:32:42;9.63;;;9.03;;
8102;SDS011;4094;49.948;11.574;2023-04-25T02:35:12;9.43;;;8.83;;
8102;SDS011;4094;49.948;11.574;2023-04-25T02:37:41;9.20;;;8.60;;
8102;SDS011;4094;49.948;11.574;2023-04-25T02:40:12;9.47;;;8.87;;
8102;SDS011;4094;49.948;11.574;2023-04-25T02:42:41;9.60;;;8.90;;
8102;SDS011;4094;49.948;11.574;2023-04-25T02:45:13;9.03;;;8.43;;
8102;SDS011;4094;49.948;11.574;2023-04-25T02:47:43;10.23;;;9.47;;
8102;SDS011;4094;49.948;11.574;2023-04-25T02:50:12;10.37;;;9.67;;
8102;SDS011;4094;49.948;11.574;2023-04-25T02:52:42;9.90;;;9.10;;
8102;SDS011;4094;49.948;11.574;2023-04-25T02:55:16;10.23;;;9.43;;
8102;SDS011;4094;49.948;11.574;2023-04-25T02:57:47;10.57;;;9.83;;
8102;SDS011;4094;49.948;11.574;2023-04-25T03:00:27;10.10;;;9.30;;
8102;SDS011;4094;49.948;11.574;2023-04-25T03:02:56;10.07;;;9.27;;
8102;SDS011;4094;49.948;11.574;2023-04-25T03:05:26;9.67;;;9.07;;
8102;SDS011;4094;49.948;11.574;2023-04-25T03:07:55;10.00;;;9.20;;
8102;SDS011;4094;49.948;11.574;2023-04-25T03:10:26;9.33;;;8.73;;
8102;SDS011;4094;49.948;11.574;2023-04-25T03:12:58;10.17;;;9.47;;
8102;SDS011;4094;49.948;11.574;2023-04-25T03:15:28;10.07;;;9.37;;
8102;SDS011;4094;49.948;11.574;2023-04-25T03:17:59;11.03;;;10.33;;
8102;SDS011;4094;49.948;11.574;2023-04-25T03:20:28;10.47;;;9.77;;
8102;SDS011;4094;49.948;11.574;2023-04-25T03:22:57;10.83;;;10.03;;
8102;SDS011;4094;49.948;11.574;2023-04-25T03:25:30;9.87;;;9.27;;
8102;SDS011;4094;49.948;11.574;2023-04-25T03:27:59;10.03;;;9.33;;
8102;SDS011;4094;49.948;11.574;2023-04-25T03:30:28;10.07;;;9.37;;
8102;SDS011;4094;49.948;11.574;2023-04-25T03:32:58;10.30;;;9.70;;
8102;SDS011;4094;49.948;11.574;2023-04-25T03:35:28;10.60;;;9.80;;
8102;SDS011;4094;49.948;11.574;2023-04-25T03:37:57;10.67;;;9.87;;
8102;SDS011;4094;49.948;11.574;2023-04-25T03:40:32;10.27;;;9.57;;
8102;SDS011;4094;49.948;11.574;2023-04-25T03:43:14;9.70;;;9.10;;
8102;SDS011;4094;49.948;11.574;2023-04-25T03:45:50;9.83;;;9.23;;
8102;SDS011;4094;49.948;11.574;2023-04-25T03:48:22;9.90;;;9.20;;
8102;SDS011;4094;49.948;11.574;2023-04-25T03:50:53;10.50;;;9.80;;
8102;SDS011;4094;49.948;11.574;2023-04-25T03:53:23;10.00;;;9.30;;
8102;SDS011;4094;49.948;11.574;2023-04-25T03:56:13;10.70;;;10.00;;
8102;SDS011;4094;49.948;11.574;2023-04-25T03:58:44;10.07;;;9.37;;
8102;SDS011;4094;49.948;11.574;2023-04-25T04:01:15;10.23;;;9.53;;
8102;SDS011;4094;49.948;11.574;2023-04-25T04:03:45;10.17;;;9.47;;
8102;SDS011;4094;49.948;11.574;2023-04-25T04:06:16;10.67;;;9.97;;
8102;SDS011;4094;49.948;11.574;2023-04-25T04:08:49;10.77;;;9.90;;
8102;SDS011;4094;49.948;11.574;2023-04-25T04:11:20;10.17;;;9.53;;
8102;SDS011;4094;49.948;11.574;2023-04-25T04:13:49;10.30;;;9.53;;
8102;SDS011;4094;49.948;11.574;2023-04-25T04:16:19;10.37;;;9.67;;
8102;SDS011;4094;49.948;11.574;2023-04-25T04:18:48;9.70;;;9.10;;
8102;SDS011;4094;49.948;11.574;2023-04-25T04:21:17;10.87;;;10.10;;
8102;SDS011;4094;49.948;11.574;2023-04-25T04:23:47;9.47;;;8.97;;
8102;SDS011;4094;49.948;11.574;2023-04-25T04:26:16;9.93;;;9.33;;
8102;SDS011;4094;49.948;11.574;2023-04-25T04:29:08;9.77;;;9.03;;
8102;SDS011;4094;49.948;11.574;2023-04-25T04:31:47;10.20;;;9.40;;
8102;SDS011;4094;49.948;11.574;2023-04-25T04:34:17;10.40;;;9.50;;
8102;SDS011;4094;49.948;11.574;2023-04-25T04:36:47;9.77;;;9.17;;
8102;SDS011;4094;49.948;11.574;2023-04-25T04:39:16;10.27;;;9.57;;
8102;SDS011;4094;49.948;11.574;2023-04-25T04:42:15;9.87;;;9.20;;
8102;SDS011;4094;49.948;11.574;2023-04-25T04:44:55;10.10;;;9.40;;
8102;SDS011;4094;49.948;11.574;2023-04-25T04:47:40;9.60;;;9.00;;
8102;SDS011;4094;49.948;11.574;2023-04-25T04:50:18;10.17;;;9.50;;
8102;SDS011;4094;49.948;11.574;2023-04-25T04:53:20;9.67;;;8.97;;
8102;SDS011;4094;49.948;11.574;2023-04-25T04:56:01;9.73;;;9.13;;
8102;SDS011;4094;49.948;11.574;2023-04-25T04:58:56;10.93;;;10.23;;
8102;SDS011;4094;49.948;11.574;2023-04-25T05:01:44;11.23;;;10.40;;
8102;SDS011;4094;49.948;11.574;2023-04-25T05:04:20;9.17;;;8.63;;
8102;SDS011;4094;49.948;11.574;2023-04-25T05:07:05;9.23;;;8.63;;
8102;SDS011;4094;49.948;11.574;2023-04-25T05:09:46;9.17;;;8.67;;
8102;SDS011;4094;49.948;11.574;2023-04-25T05:12:42;8.93;;;8.27;;
8102;SDS011;4094;49.948;11.574;2023-04-25T05:15:30;8.40;;;7.90;;
8102;SDS011;4094;49.948;11.574;2023-04-25T05:18:23;8.03;;;7.63;;
8102;SDS011;4094;49.948;11.574;2023-04-25T05:21:04;7.97;;;7.37;;
8102;SDS011;4094;49.948;11.574;2023-04-25T05:23:46;8.10;;;7.60;;
8102;SDS011;4094;49.948;11.574;2023-04-25T05:26:34;8.13;;;7.67;;
8102;SDS011;4094;49.948;11.574;2023-04-25T05:29:21;8.23;;;7.83;;
8102;SDS011;4094;49.948;11.574;2023-04-25T05:32:11;8.37;;;7.97;;
8102;SDS011;4094;49.948;11.574;2023-04-25T05:34:42;8.30;;;7.80;;
8102;SDS011;4094;49.948;11.574;2023-04-25T05:37:20;8.50;;;7.80;;
8102;SDS011;4094;49.948;11.574;2023-04-25T05:39:55;6.90;;;6.60;;
8102;SDS011;4094;49.948;11.574;2023-04-25T05:42:41;7.07;;;6.77;;
8102;SDS011;4094;49.948;11.574;2023-04-25T05:45:36;7.50;;;7.10;;
8102;SDS011;4094;49.948;11.574;2023-04-25T05:48:28;6.70;;;6.40;;
8102;SDS011;4094;49.948;11.574;2023-04-25T05:51:22;7.40;;;7.00;;
8102;SDS011;4094;49.948;11.574;2023-04-25T05:54:06;7.23;;;6.90;;
8102;SDS011;4094;49.948;11.574;2023-04-25T05:56:35;6.70;;;6.40;;
8102;SDS011;4094;49.948;11.574;2023-04-25T05:59:05;6.83;;;6.53;;
8102;SDS011;4094;49.948;11.574;2023-04-25T06:01:34;7.10;;;6.80;;
8102;SDS011;4094;49.948;11.574;2023-04-25T06:04:04;6.93;;;6.63;;
8102;SDS011;4094;49.948;11.574;2023-04-25T06:06:35;6.87;;;6.47;;
8102;SDS011;4094;49.948;11.574;2023-04-25T06:09:05;6.97;;;6.57;;
8102;SDS011;4094;49.948;11.574;2023-04-25T06:11:34;7.13;;;6.73;;
8102;SDS011;4094;49.948;11.574;2023-04-25T06:14:03;7.40;;;7.00;;
8102;SDS011;4094;49.948;11.574;2023-04-25T06:16:34;7.43;;;7.13;;
8102;SDS011;4094;49.948;11.574;2023-04-25T06:19:04;7.47;;;7.17;;
8102;SDS011;4094;49.948;11.574;2023-04-25T06:21:35;7.30;;;6.90;;
8102;SDS011;4094;49.948;11.574;2023-04-25T06:24:04;7.40;;;7.00;;
8102;SDS011;4094;49.948;11.574;2023-04-25T06:26:34;7.53;;;7.13;;
8102;SDS011;4094;49.948;11.574;2023-04-25T06:29:04;7.07;;;6.77;;
8102;SDS011;4094;49.948;11.574;2023-04-25T06:31:33;7.57;;;7.17;;
8102;SDS011;4094;49.948;11.574;2023-04-25T06:34:03;6.87;;;6.57;;
8102;SDS011;4094;49.948;11.574;2023-04-25T06:36:38;7.10;;;6.80;;
8102;SDS011;4094;49.948;11.574;2023-04-25T06:39:12;6.87;;;6.57;;
8102;SDS011;4094;49.948;11.574;2023-04-25T06:41:41;8.03;;;7.63;;
8102;SDS011;4094;49.948;11.574;2023-04-25T06:44:30;8.03;;;7.43;;
8102;SDS011;4094;49.948;11.574;2023-04-25T06:47:00;7.60;;;7.20;;
8102;SDS011;4094;49.948;11.574;2023-04-25T06:49:30;6.83;;;6.53;;
8102;SDS011;4094;49.948;11.574;2023-04-25T06:52:00;7.23;;;6.83;;
8102;SDS011;4094;49.948;11.574;2023-04-25T06:54:30;8.30;;;7.67;;
8102;SDS011;4094;49.948;11.574;2023-04-25T06:57:05;7.57;;;7.07;;
8102;SDS011;4094;49.948;11.574;2023-04-25T06:59:35;7.37;;;7.00;;
8102;SDS011;4094;49.948;11.574;2023-04-25T07:02:04;6.97;;;6.67;;
8102;SDS011;4094;49.948;11.574;2023-04-25T07:04:34;7.33;;;6.93;;
8102;SDS011;4094;49.948;11.574;2023-04-25T07:07:05;7.47;;;7.17;;
8102;SDS011;4094;49.948;11.574;2023-04-25T07:09:44;6.90;;;6.57;;
8102;SDS011;4094;49.948;11.574;2023-04-25T07:12:13;7.13;;;6.83;;
8102;SDS011;4094;49.948;11.574;2023-04-25T07:14:43;7.60;;;7.20;;
8102;SDS011;4094;49.948;11.574;2023-04-25T07:17:13;7.70;;;7.30;;
8102;SDS011;4094;49.948;11.574;2023-04-25T07:19:42;7.37;;;6.93;;
8102;SDS011;4094;49.948;11.574;2023-04-25T07:22:13;7.53;;;7.13;;
8102;SDS011;4094;49.948;11.574;2023-04-25T07:24:43;7.37;;;7.07;;
8102;SDS011;4094;49.948;11.574;2023-04-25T07:27:19;7.63;;;7.23;;
8102;SDS011;4094;49.948;11.574;2023-04-25T07:29:56;7.77;;;7.33;;
8102;SDS011;4094;49.948;11.574;2023-04-25T07:32:25;8.57;;;7.97;;
8102;SDS011;4094;49.948;11.574;2023-04-25T07:34:55;8.00;;;7.50;;
8102;SDS011;4094;49.948;11.574;2023-04-25T07:37:26;9.37;;;8.10;;
8102;SDS011;4094;49.948;11.574;2023-04-25T07:40:03;7.33;;;7.03;;
8102;SDS011;4094;49.948;11.574;2023-04-25T07:42:33;7.83;;;7.33;;
8102;SDS011;4094;49.948;11.574;2023-04-25T07:45:04;8.03;;;7.50;;
8102;SDS011;4094;49.948;11.574;2023-04-25T07:47:34;7.63;;;7.23;;
8102;SDS011;4094;49.948;11.574;2023-04-25T07:50:05;7.87;;;7.37;;
8102;SDS011;4094;49.948;11.574;2023-04-25T07:52:36;8.03;;;7.53;;
8102;SDS011;4094;49.948;11.574;2023-04-25T07:55:15;8.60;;;8.00;;
8102;SDS011;4094;49.948;11.574;2023-04-25T07:58:06;8.30;;;7.70;;
8102;SDS011;4094;49.948;11.574;2023-04-25T08:00:37;9.27;;;8.47;;
8102;SDS011;4094;49.948;11.574;2023-04-25T08:03:37;9.20;;;8.53;;
8102;SDS011;4094;49.948;11.574;2023-04-25T08:06:13;8.27;;;7.77;;
8102;SDS011;4094;49.948;11.574;2023-04-25T08:09:10;8.70;;;8.10;;
8102;SDS011;4094;49.948;11.574;2023-04-25T08:11:42;8.63;;;8.10;;
8102;SDS011;4094;49.948;11.574;2023-04-25T08:14:14;9.03;;;8.53;;
8102;SDS011;4094;49.948;11.574;2023-04-25T08:16:45;9.10;;;8.50;;
8102;SDS011;4094;49.948;11.574;2023-04-25T08:19:15;9.23;;;8.60;;
8102;SDS011;4094;49.948;11.574;2023-04-25T08:21:45;8.93;;;8.37;;
8102;SDS011;4094;49.948;11.574;2023-04-25T08:24:21;9.23;;;8.63;;
8102;SDS011;4094;49.948;11.574;2023-04-25T08:26:51;9.00;;;8.40;;
8102;SDS011;4094;49.948;11.574;2023-04-25T08:29:23;9.10;;;8.50;;
8102;SDS011;4094;49.948;11.574;2023-04-25T08:31:54;9.17;;;8.63;;
8102;SDS011;4094;49.948;11.574;2023-04-25T08:34:23;9.43;;;8.73;;
8102;SDS011;4094;49.948;11.574;2023-04-25T08:36:53;9.40;;;8.60;;
8102;SDS011;4094;49.948;11.574;2023-04-25T08:39:50;9.30;;;8.70;;
8102;SDS011;4094;49.948;11.574;2023-04-25T08:42:24;9.47;;;8.67;;
8102;SDS011;4094;49.948;11.574;2023-04-25T08:44:55;9.30;;;8.50;;
8102;SDS011;4094;49.948;11.574;2023-04-25T08:47:31;9.70;;;9.03;;
8102;SDS011;4094;49.948;11.574;2023-04-25T08:50:02;9.20;;;8.60;;
8102;SDS011;4094;49.948;11.574;2023-04-25T08:52:35;9.47;;;8.77;;
8102;SDS011;4094;49.948;11.574;2023-04-25T08:55:09;9.40;;;8.60;;
8102;SDS011;4094;49.948;11.574;2023-04-25T08:57:40;9.00;;;8.27;;
8102;SDS011;4094;49.948;11.574;2023-04-25T09:00:11;9.33;;;8.60;;
8102;SDS011;4094;49.948;11.574;2023-04-25T09:02:44;9.37;;;8.67;;
8102;SDS011;4094;49.948;11.574;2023-04-25T09:05:15;9.73;;;9.03;;
8102;SDS011;4094;49.948;11.574;2023-04-25T09:07:48;9.40;;;8.53;;
8102;SDS011;4094;49.948;11.574;2023-04-25T09:10:19;8.80;;;8.13;;
8102;SDS011;4094;49.948;11.574;2023-04-25T09:13:01;9.37;;;8.67;;
8102;SDS011;4094;49.948;11.574;2023-04-25T09:15:47;9.20;;;8.40;;
8102;SDS011;4094;49.948;11.574;2023-04-25T09:18:39;8.07;;;7.37;;
8102;SDS011;4094;49.948;11.574;2023-04-25T09:21:18;9.47;;;8.70;;
8102;SDS011;4094;49.948;11.574;2023-04-25T09:23:51;8.40;;;7.80;;
8102;SDS011;4094;49.948;11.574;2023-04-25T09:26:23;8.40;;;7.80;;
8102;SDS011;4094;49.948;11.574;2023-04-25T09:29:03;8.07;;;7.47;;
8102;SDS011;4094;49.948;11.574;2023-04-25T09:31:39;8.40;;;7.70;;
8102;SDS011;4094;49.948;11.574;2023-04-25T09:34:10;8.00;;;7.50;;
8102;SDS011;4094;49.948;11.574;2023-04-25T09:36:47;7.80;;;7.20;;
8102;SDS011;4094;49.948;11.574;2023-04-25T09:39:28;7.77;;;7.23;;
8102;SDS011;4094;49.948;11.574;2023-04-25T09:42:13;7.90;;;7.40;;
8102;SDS011;4094;49.948;11.574;2023-04-25T09:44:43;8.60;;;7.93;;
8102;SDS011;4094;49.948;11.574;2023-04-25T09:47:15;10.67;;;7.47;;
8102;SDS011;4094;49.948;11.574;2023-04-25T09:49:45;8.43;;;7.70;;
8102;SDS011;4094;49.948;11.574;2023-04-25T09:52:15;8.40;;;7.80;;
8102;SDS011;4094;49.948;11.574;2023-04-25T09:55:07;8.30;;;7.60;;
8102;SDS011;4094;49.948;11.574;2023-04-25T09:57:38;8.10;;;7.40;;
8102;SDS011;4094;49.948;11.574;2023-04-25T10:00:08;7.87;;;7.23;;
8102;SDS011;4094;49.948;11.574;2023-04-25T10:02:43;7.97;;;7.37;;
8102;SDS011;4094;49.948;11.574;2023-04-25T10:05:35;7.87;;;7.27;;
8102;SDS011;4094;49.948;11.574;2023-04-25T10:08:05;7.97;;;7.40;;
8102;SDS011;4094;49.948;11.574;2023-04-25T10:10:36;8.27;;;7.63;;
8102;SDS011;4094;49.948;11.574;2023-04-25T10:13:08;7.33;;;6.73;;
8102;SDS011;4094;49.948;11.574;2023-04-25T10:15:37;7.07;;;6.57;;
8102;SDS011;4094;49.948;11.574;2023-04-25T10:18:08;7.20;;;6.70;;
8102;SDS011;4094;49.948;11.574;2023-04-25T10:20:38;7.30;;;6.63;;
8102;SDS011;4094;49.948;11.574;2023-04-25T10:23:11;7.37;;;6.80;;
8102;SDS011;4094;49.948;11.574;2023-04-25T10:25:42;6.90;;;6.30;;
8102;SDS011;4094;49.948;11.574;2023-04-25T10:28:13;6.80;;;6.20;;
8102;SDS011;4094;49.948;11.574;2023-04-25T10:30:56;6.97;;;6.47;;
8102;SDS011;4094;49.948;11.574;2023-04-25T10:33:30;6.83;;;6.23;;
8102;SDS011;4094;49.948;11.574;2023-04-25T10:36:08;7.13;;;6.60;;
8102;SDS011;4094;49.948;11.574;2023-04-25T10:38:39;6.77;;;6.27;;
8102;SDS011;4094;49.948;11.574;2023-04-25T10:41:09;7.63;;;6.73;;
8102;SDS011;4094;49.948;11.574;2023-04-25T10:43:42;7.47;;;6.90;;
8102;SDS011;4094;49.948;11.574;2023-04-25T10:46:15;6.90;;;6.47;;
8102;SDS011;4094;49.948;11.574;2023-04-25T10:48:47;6.30;;;5.90;;
8102;SDS011;4094;49.948;11.574;2023-04-25T10:51:18;6.83;;;6.30;;
8102;SDS011;4094;49.948;11.574;2023-04-25T10:53:59;6.63;;;6.23;;
8102;SDS011;4094;49.948;11.574;2023-04-25T10:56:29;6.83;;;6.30;;
8102;SDS011;4094;49.948;11.574;2023-04-25T10:59:08;6.20;;;5.77;;
8102;SDS011;4094;49.948;11.574;2023-04-25T11:01:39;6.43;;;5.93;;
8102;SDS011;4094;49.948;11.574;2023-04-25T11:04:19;6.43;;;5.93;;
8102;SDS011;4094;49.948;11.574;2023-04-25T11:06:55;6.63;;;6.03;;
8102;SDS011;4094;49.948;11.574;2023-04-25T11:09:37;5.87;;;5.47;;
8102;SDS011;4094;49.948;11.574;2023-04-25T11:12:09;6.50;;;6.10;;
8102;SDS011;4094;49.948;11.574;2023-04-25T11:14:40;6.30;;;5.80;;
8102;SDS011;4094;49.948;11.574;2023-04-25T11:17:10;6.10;;;5.70;;
8102;SDS011;4094;49.948;11.574;2023-04-25T11:19:39;6.00;;;5.50;;
8102;SDS011;4094;49.948;11.574;2023-04-25T11:22:09;6.00;;;5.60;;
8102;SDS011;4094;49.948;11.574;2023-04-25T11:24:39;6.03;;;5.63;;
8102;SDS011;4094;49.948;11.574;2023-04-25T11:27:08;5.27;;;4.97;;
8102;SDS011;4094;49.948;11.574;2023-04-25T11:29:37;5.33;;;5.13;;
8102;SDS011;4094;49.948;11.574;2023-04-25T11:32:08;5.97;;;5.60;;
8102;SDS011;4094;49.948;11.574;2023-04-25T11:34:37;5.57;;;5.27;;
8102;SDS011;4094;49.948;11.574;2023-04-25T11:37:07;5.53;;;4.93;;
8102;SDS011;4094;49.948;11.574;2023-04-25T11:39:36;4.97;;;4.77;;
8102;SDS011;4094;49.948;11.574;2023-04-25T11:42:06;5.30;;;5.00;;
8102;SDS011;4094;49.948;11.574;2023-04-25T11:44:40;5.20;;;4.90;;
8102;SDS011;4094;49.948;11.574;2023-04-25T11:47:11;5.17;;;4.83;;
8102;SDS011;4094;49.948;11.574;2023-04-25T11:49:40;4.87;;;4.57;;
8102;SDS011;4094;49.948;11.574;2023-04-25T11:52:09;5.07;;;4.77;;
8102;SDS011;4094;49.948;11.574;2023-04-25T11:54:39;5.30;;;5.00;;
8102;SDS011;4094;49.948;11.574;2023-04-25T11:57:08;5.40;;;5.10;;
8102;SDS011;4094;49.948;11.574;2023-04-25T11:59:38;5.53;;;5.13;;
8102;SDS011;4094;49.948;11.574;2023-04-25T12:02:07;5.70;;;5.40;;
8102;SDS011;4094;49.948;11.574;2023-04-25T12:04:40;5.30;;;5.07;;
8102;SDS011;4094;49.948;11.574;2023-04-25T12:07:10;5.43;;;5.03;;
8102;SDS011;4094;49.948;11.574;2023-04-25T12:09:39;5.60;;;5.30;;
8102;SDS011;4094;49.948;11.574;2023-04-25T12:12:09;5.57;;;5.27;;
8102;SDS011;4094;49.948;11.574;2023-04-25T12:14:38;5.20;;;4.90;;
8102;SDS011;4094;49.948;11.574;2023-04-25T12:17:08;5.47;;;5.17;;
8102;SDS011;4094;49.948;11.574;2023-04-25T12:19:40;5.60;;;5.20;;
8102;SDS011;4094;49.948;11.574;2023-04-25T12:22:19;5.47;;;5.17;;
8102;SDS011;4094;49.948;11.574;2023-04-25T12:24:49;5.10;;;4.80;;
8102;SDS011;4094;49.948;11.574;2023-04-25T12:27:20;5.70;;;5.40;;
8102;SDS011;4094;49.948;11.574;2023-04-25T12:29:51;5.13;;;4.87;;
8102;SDS011;4094;49.948;11.574;2023-04-25T12:32:21;5.23;;;4.93;;
8102;SDS011;4094;49.948;11.574;2023-04-25T12:34:52;5.13;;;4.83;;
8102;SDS011;4094;49.948;11.574;2023-04-25T12:37:22;4.73;;;4.53;;
8102;SDS011;4094;49.948;11.574;2023-04-25T12:39:51;5.40;;;5.10;;
8102;SDS011;4094;49.948;11.574;2023-04-25T12:42:20;5.77;;;5.37;;
8102;SDS011;4094;49.948;11.574;2023-04-25T12:44:49;5.47;;;5.17;;
8102;SDS011;4094;49.948;11.574;2023-04-25T12:47:19;5.37;;;5.07;;
8102;SDS011;4094;49.948;11.574;2023-04-25T12:49:48;5.17;;;4.97;;
8102;SDS011;4094;49.948;11.574;2023-04-25T12:52:19;5.03;;;4.73;;
8102;SDS011;4094;49.948;11.574;2023-04-25T12:54:48;5.40;;;5.07;;
8102;SDS011;4094;49.948;11.574;2023-04-25T12:57:18;5.40;;;5.10;;
8102;SDS011;4094;49.948;11.574;2023-04-25T12:59:48;5.53;;;5.07;;
8102;SDS011;4094;49.948;11.574;2023-04-25T13:02:17;5.40;;;5.10;;
8102;SDS011;4094;49.948;11.574;2023-04-25T13:04:47;5.57;;;5.27;;
8102;SDS011;4094;49.948;11.574;2023-04-25T13:07:16;5.00;;;4.80;;
8102;SDS011;4094;49.948;11.574;2023-04-25T13:09:47;5.13;;;4.90;;
8102;SDS011;4094;49.948;11.574;2023-04-25T13:12:16;5.30;;;5.00;;
8102;SDS011;4094;49.948;11.574;2023-04-25T13:14:45;5.43;;;5.13;;
8102;SDS011;4094;49.948;11.574;2023-04-25T13:17:15;5.63;;;5.33;;
8102;SDS011;4094;49.948;11.574;2023-04-25T13:19:44;5.73;;;5.30;;
8102;SDS011;4094;49.948;11.574;2023-04-25T13:22:14;5.40;;;5.10;;
8102;SDS011;4094;49.948;11.574;2023-04-25T13:24:44;4.90;;;4.60;;
8102;SDS011;4094;49.948;11.574;2023-04-25T13:27:14;5.73;;;5.43;;
8102;SDS011;4094;49.948;11.574;2023-04-25T13:29:44;5.23;;;4.93;;
8102;SDS011;4094;49.948;11.574;2023-04-25T13:32:13;5.80;;;5.50;;
8102;SDS011;4094;49.948;11.574;2023-04-25T13:34:43;5.40;;;5.00;;
8102;SDS011;4094;49.948;11.574;2023-04-25T13:37:12;5.40;;;5.10;;
8102;SDS011;4094;49.948;11.574;2023-04-25T13:39:41;5.60;;;5.30;;
8102;SDS011;4094;49.948;11.574;2023-04-25T13:42:10;5.20;;;4.90;;
8102;SDS011;4094;49.948;11.574;2023-04-25T13:44:41;5.40;;;5.10;;
8102;SDS011;4094;49.948;11.574;2023-04-25T13:47:10;5.77;;;5.40;;
8102;SDS011;4094;49.948;11.574;2023-04-25T13:49:39;5.57;;;5.27;;
8102;SDS011;4094;49.948;11.574;2023-04-25T13:52:09;5.87;;;5.47;;
8102;SDS011;4094;49.948;11.574;2023-04-25T13:54:38;5.53;;;5.23;;
8102;SDS011;4094;49.948;11.574;2023-04-25T13:57:07;5.30;;;5.00;;
8102;SDS011;4094;49.948;11.574;2023-04-25T13:59:38;4.90;;;4.70;;
8102;SDS011;4094;49.948;11.574;2023-04-25T14:02:09;5.77;;;5.37;;
8102;SDS011;4094;49.948;11.574;2023-04-25T14:04:39;5.73;;;5.43;;
8102;SDS011;4094;49.948;11.574;2023-04-25T14:07:09;5.70;;;5.30;;
8102;SDS011;4094;49.948;11.574;2023-04-25T14:09:38;6.10;;;5.70;;
8102;SDS011;4094;49.948;11.574;2023-04-25T14:12:07;5.67;;;5.37;;
8102;SDS011;4094;49.948;11.574;2023-04-25T14:14:37;6.10;;;5.70;;
8102;SDS011;4094;49.948;11.574;2023-04-25T14:17:09;5.70;;;5.37;;
8102;SDS011;4094;49.948;11.574;2023-04-25T14:19:38;6.13;;;5.83;;
8102;SDS011;4094;49.948;11.574;2023-04-25T14:22:10;6.20;;;5.60;;
8102;SDS011;4094;49.948;11.574;2023-04-25T14:24:40;6.07;;;5.67;;
8102;SDS011;4094;49.948;11.574;2023-04-25T14:27:09;5.83;;;5.43;;
8102;SDS011;4094;49.948;11.574;2023-04-25T14:29:39;5.87;;;5.53;;
8102;SDS011;4094;49.948;11.574;2023-04-25T14:32:10;6.50;;;6.00;;
8102;SDS011;4094;49.948;11.574;2023-04-25T14:34:39;6.10;;;5.70;;
8102;SDS011;4094;49.948;11.574;2023-04-25T14:37:08;6.23;;;5.83;;
8102;SDS011;4094;49.948;11.574;2023-04-25T14:39:37;6.07;;;5.67;;
8102;SDS011;4094;49.948;11.574;2023-04-25T14:42:07;6.40;;;5.90;;
8102;SDS011;4094;49.948;11.574;2023-04-25T14:44:36;6.60;;;6.10;;
8102;SDS011;4094;49.948;11.574;2023-04-25T14:47:06;5.97;;;5.67;;
8102;SDS011;4094;49.948;11.574;2023-04-25T14:49:37;6.33;;;5.93;;
8102;SDS011;4094;49.948;11.574;2023-04-25T14:52:07;6.37;;;5.80;;
8102;SDS011;4094;49.948;11.574;2023-04-25T14:54:36;6.40;;;6.00;;
8102;SDS011;4094;49.948;11.574;2023-04-25T14:57:05;6.27;;;5.87;;
8102;SDS011;4094;49.948;11.574;2023-04-25T14:59:34;6.60;;;6.20;;
8102;SDS011;4094;49.948;11.574;2023-04-25T15:02:04;6.17;;;5.77;;
8102;SDS011;4094;49.948;11.574;2023-04-25T15:04:34;7.07;;;6.57;;
8102;SDS011;4094;49.948;11.574;2023-04-25T15:07:04;7.03;;;6.53;;
8102;SDS011;4094;49.948;11.574;2023-04-25T15:09:34;6.47;;;6.07;;
8102;SDS011;4094;49.948;11.574;2023-04-25T15:12:03;7.10;;;6.40;;
8102;SDS011;4094;49.948;11.574;2023-04-25T15:14:33;6.60;;;6.10;;
8102;SDS011;4094;49.948;11.574;2023-04-25T15:17:02;6.60;;;6.10;;
8102;SDS011;4094;49.948;11.574;2023-04-25T15:19:31;6.80;;;6.23;;
8102;SDS011;4094;49.948;11.574;2023-04-25T15:22:01;6.93;;;6.40;;
8102;SDS011;4094;49.948;11.574;2023-04-25T15:24:31;6.83;;;6.13;;
8102;SDS011;4094;49.948;11.574;2023-04-25T15:27:01;6.83;;;6.33;;
8102;SDS011;4094;49.948;11.574;2023-04-25T15:29:31;7.60;;;6.43;;
8102;SDS011;4094;49.948;11.574;2023-04-25T15:32:01;6.90;;;6.27;;
8102;SDS011;4094;49.948;11.574;2023-04-25T15:34:30;6.67;;;6.17;;